sensor_id;sensor_type;location;lat;lon;timestamp;temperature;humidity
41592;DHT22;28026;48.562;14.440;2023-06-14T00:01:26;11.90;99.90
41592;DHT22;28026;48.562;14.440;2023-06-14T00:03:57;11.80;99.90
41592;DHT22;28026;48.562;14.440;2023-06-14T00:06:29;11.70;99.90
41592;DHT22;28026;48.562;14.440;2023-06-14T00:09:00;11.60;99.90
41592;DHT22;28026;48.562;14.440;2023-06-14T00:11:31;11.60;99.90
41592;DHT22;28026;48.562;14.440;2023-06-14T00:14:03;11.50;99.90
41592;DHT22;28026;48.562;14.440;2023-06-14T00:16:34;11.50;99.90
41592;DHT22;28026;48.562;14.440;2023-06-14T00:19:05;11.50;99.90
41592;DHT22;28026;48.562;14.440;2023-06-14T00:21:37;11.50;99.90
41592;DHT22;28026;48.562;14.440;2023-06-14T00:24:08;11.30;99.90
41592;DHT22;28026;48.562;14.440;2023-06-14T00:26:40;11.30;99.90
41592;DHT22;28026;48.562;14.440;2023-06-14T00:29:10;11.30;99.90
41592;DHT22;28026;48.562;14.440;2023-06-14T00:31:41;11.40;99.90
41592;DHT22;28026;48.562;14.440;2023-06-14T00:34:12;11.40;99.90
41592;DHT22;28026;48.562;14.440;2023-06-14T00:36:43;11.50;99.90
41592;DHT22;28026;48.562;14.440;2023-06-14T00:39:14;11.50;99.90
41592;DHT22;28026;48.562;14.440;2023-06-14T00:41:45;11.40;99.90
41592;DHT22;28026;48.562;14.440;2023-06-14T00:44:16;11.30;99.90
41592;DHT22;28026;48.562;14.440;2023-06-14T00:46:48;11.20;99.90
41592;DHT22;28026;48.562;14.440;2023-06-14T00:49:19;11.10;99.90
41592;DHT22;28026;48.562;14.440;2023-06-14T00:51:50;11.10;99.90
41592;DHT22;28026;48.562;14.440;2023-06-14T00:54:21;11.20;99.90
41592;DHT22;28026;48.562;14.440;2023-06-14T00:56:52;11.20;99.90
41592;DHT22;28026;48.562;14.440;2023-06-14T00:59:23;11.20;99.90
41592;DHT22;28026;48.562;14.440;2023-06-14T01:01:55;11.10;99.90
41592;DHT22;28026;48.562;14.440;2023-06-14T01:04:26;11.00;99.90
41592;DHT22;28026;48.562;14.440;2023-06-14T01:14:02;11.10;99.90
41592;DHT22;28026;48.562;14.440;2023-06-14T01:16:34;11.00;99.90
41592;DHT22;28026;48.562;14.440;2023-06-14T01:19:10;11.00;99.90
41592;DHT22;28026;48.562;14.440;2023-06-14T01:21:44;10.80;99.90
41592;DHT22;28026;48.562;14.440;2023-06-14T01:24:15;10.80;99.90
41592;DHT22;28026;48.562;14.440;2023-06-14T01:26:45;10.70;99.90
41592;DHT22;28026;48.562;14.440;2023-06-14T01:29:23;10.70;99.90
41592;DHT22;28026;48.562;14.440;2023-06-14T01:31:58;10.70;99.90
41592;DHT22;28026;48.562;14.440;2023-06-14T01:34:31;10.60;99.90
41592;DHT22;28026;48.562;14.440;2023-06-14T01:37:02;10.50;99.90
41592;DHT22;28026;48.562;14.440;2023-06-14T01:39:34;10.50;99.90
41592;DHT22;28026;48.562;14.440;2023-06-14T01:42:06;10.50;99.90
41592;DHT22;28026;48.562;14.440;2023-06-14T01:44:37;10.50;99.90
41592;DHT22;28026;48.562;14.440;2023-06-14T01:47:11;10.50;99.90
41592;DHT22;28026;48.562;14.440;2023-06-14T01:49:42;10.40;99.90
41592;DHT22;28026;48.562;14.440;2023-06-14T01:52:13;10.40;99.90
41592;DHT22;28026;48.562;14.440;2023-06-14T01:54:44;10.50;99.90
41592;DHT22;28026;48.562;14.440;2023-06-14T01:57:15;10.40;99.90
41592;DHT22;28026;48.562;14.440;2023-06-14T01:59:46;10.40;99.90
41592;DHT22;28026;48.562;14.440;2023-06-14T02:02:18;10.30;99.90
41592;DHT22;28026;48.562;14.440;2023-06-14T02:04:49;10.30;99.90
41592;DHT22;28026;48.562;14.440;2023-06-14T02:07:20;10.40;99.90
41592;DHT22;28026;48.562;14.440;2023-06-14T02:09:51;10.40;99.90
41592;DHT22;28026;48.562;14.440;2023-06-14T02:12:22;10.30;99.90
41592;DHT22;28026;48.562;14.440;2023-06-14T02:14:53;10.30;99.90
41592;DHT22;28026;48.562;14.440;2023-06-14T02:17:24;10.30;99.90
41592;DHT22;28026;48.562;14.440;2023-06-14T02:19:55;10.30;99.90
41592;DHT22;28026;48.562;14.440;2023-06-14T02:22:27;10.30;99.90
41592;DHT22;28026;48.562;14.440;2023-06-14T02:24:58;10.30;99.90
41592;DHT22;28026;48.562;14.440;2023-06-14T02:27:29;10.40;99.90
41592;DHT22;28026;48.562;14.440;2023-06-14T02:30:00;10.40;99.90
41592;DHT22;28026;48.562;14.440;2023-06-14T02:32:32;10.30;99.90
41592;DHT22;28026;48.562;14.440;2023-06-14T02:35:06;10.30;99.90
41592;DHT22;28026;48.562;14.440;2023-06-14T02:37:38;10.40;99.90
41592;DHT22;28026;48.562;14.440;2023-06-14T02:40:09;10.20;99.90
41592;DHT22;28026;48.562;14.440;2023-06-14T02:42:40;10.10;99.90
41592;DHT22;28026;48.562;14.440;2023-06-14T02:45:11;10.20;99.90
41592;DHT22;28026;48.562;14.440;2023-06-14T02:47:42;10.10;99.90
41592;DHT22;28026;48.562;14.440;2023-06-14T02:50:13;10.00;99.90
41592;DHT22;28026;48.562;14.440;2023-06-14T02:52:44;10.00;99.90
41592;DHT22;28026;48.562;14.440;2023-06-14T02:55:16;10.00;99.90
41592;DHT22;28026;48.562;14.440;2023-06-14T02:57:46;9.90;99.90
41592;DHT22;28026;48.562;14.440;2023-06-14T03:00:18;10.00;99.90
41592;DHT22;28026;48.562;14.440;2023-06-14T03:02:49;10.00;99.90
41592;DHT22;28026;48.562;14.440;2023-06-14T03:05:21;9.90;99.90
41592;DHT22;28026;48.562;14.440;2023-06-14T03:07:52;9.90;99.90
41592;DHT22;28026;48.562;14.440;2023-06-14T03:10:24;9.90;99.90
41592;DHT22;28026;48.562;14.440;2023-06-14T03:12:56;9.90;99.90
41592;DHT22;28026;48.562;14.440;2023-06-14T03:15:27;9.90;99.90
41592;DHT22;28026;48.562;14.440;2023-06-14T03:17:59;9.90;99.90
41592;DHT22;28026;48.562;14.440;2023-06-14T03:20:30;9.90;99.90
41592;DHT22;28026;48.562;14.440;2023-06-14T03:23:03;9.90;99.90
41592;DHT22;28026;48.562;14.440;2023-06-14T03:25:35;10.00;99.90
41592;DHT22;28026;48.562;14.440;2023-06-14T03:28:08;10.00;99.90
41592;DHT22;28026;48.562;14.440;2023-06-14T03:30:39;9.90;99.90
41592;DHT22;28026;48.562;14.440;2023-06-14T03:33:10;9.90;99.90
41592;DHT22;28026;48.562;14.440;2023-06-14T03:35:41;9.80;99.90
41592;DHT22;28026;48.562;14.440;2023-06-14T03:38:14;9.90;99.90
41592;DHT22;28026;48.562;14.440;2023-06-14T03:40:45;9.80;99.90
41592;DHT22;28026;48.562;14.440;2023-06-14T03:43:17;9.80;99.90
41592;DHT22;28026;48.562;14.440;2023-06-14T03:45:47;9.80;99.90
41592;DHT22;28026;48.562;14.440;2023-06-14T03:48:18;9.80;99.90
41592;DHT22;28026;48.562;14.440;2023-06-14T03:50:49;9.90;99.90
41592;DHT22;28026;48.562;14.440;2023-06-14T03:53:20;9.80;99.90
41592;DHT22;28026;48.562;14.440;2023-06-14T03:55:53;9.80;99.90
41592;DHT22;28026;48.562;14.440;2023-06-14T03:58:24;9.80;99.90
41592;DHT22;28026;48.562;14.440;2023-06-14T04:00:55;9.90;99.90
41592;DHT22;28026;48.562;14.440;2023-06-14T04:03:26;9.90;99.90
41592;DHT22;28026;48.562;14.440;2023-06-14T04:06:00;10.00;99.90
41592;DHT22;28026;48.562;14.440;2023-06-14T04:08:31;9.90;99.90
41592;DHT22;28026;48.562;14.440;2023-06-14T04:11:02;10.00;99.90
41592;DHT22;28026;48.562;14.440;2023-06-14T04:13:33;10.10;99.90
41592;DHT22;28026;48.562;14.440;2023-06-14T04:16:05;10.20;99.90
41592;DHT22;28026;48.562;14.440;2023-06-14T04:18:36;10.20;99.90
41592;DHT22;28026;48.562;14.440;2023-06-14T04:21:07;10.30;99.90
41592;DHT22;28026;48.562;14.440;2023-06-14T04:23:38;10.30;99.90
41592;DHT22;28026;48.562;14.440;2023-06-14T04:26:10;10.30;99.90
41592;DHT22;28026;48.562;14.440;2023-06-14T04:28:41;10.50;99.90
41592;DHT22;28026;48.562;14.440;2023-06-14T04:31:12;10.50;99.90
41592;DHT22;28026;48.562;14.440;2023-06-14T04:33:43;10.70;99.90
41592;DHT22;28026;48.562;14.440;2023-06-14T04:36:16;10.80;99.90
41592;DHT22;28026;48.562;14.440;2023-06-14T04:38:48;10.90;99.90
41592;DHT22;28026;48.562;14.440;2023-06-14T04:41:22;10.90;99.90
41592;DHT22;28026;48.562;14.440;2023-06-14T04:44:00;11.10;99.90
41592;DHT22;28026;48.562;14.440;2023-06-14T04:46:32;11.30;99.90
41592;DHT22;28026;48.562;14.440;2023-06-14T04:49:02;11.20;99.90
41592;DHT22;28026;48.562;14.440;2023-06-14T04:51:33;11.30;99.90
41592;DHT22;28026;48.562;14.440;2023-06-14T04:54:05;11.40;99.90
41592;DHT22;28026;48.562;14.440;2023-06-14T04:56:43;11.30;99.90
41592;DHT22;28026;48.562;14.440;2023-06-14T04:59:15;11.50;99.90
41592;DHT22;28026;48.562;14.440;2023-06-14T05:01:47;11.70;99.90
41592;DHT22;28026;48.562;14.440;2023-06-14T05:04:19;11.70;99.90
41592;DHT22;28026;48.562;14.440;2023-06-14T05:06:51;11.90;99.90
41592;DHT22;28026;48.562;14.440;2023-06-14T05:09:24;12.00;99.90
41592;DHT22;28026;48.562;14.440;2023-06-14T05:11:55;12.00;99.90
41592;DHT22;28026;48.562;14.440;2023-06-14T05:14:28;12.30;99.90
41592;DHT22;28026;48.562;14.440;2023-06-14T05:16:59;12.60;99.90
41592;DHT22;28026;48.562;14.440;2023-06-14T05:19:30;12.50;99.90
41592;DHT22;28026;48.562;14.440;2023-06-14T05:22:02;12.80;99.90
41592;DHT22;28026;48.562;14.440;2023-06-14T05:24:33;12.90;99.90
41592;DHT22;28026;48.562;14.440;2023-06-14T05:27:04;13.10;99.90
41592;DHT22;28026;48.562;14.440;2023-06-14T05:29:35;13.20;99.90
41592;DHT22;28026;48.562;14.440;2023-06-14T05:32:07;13.30;99.90
41592;DHT22;28026;48.562;14.440;2023-06-14T05:34:38;13.40;99.90
41592;DHT22;28026;48.562;14.440;2023-06-14T05:37:09;13.40;99.90
41592;DHT22;28026;48.562;14.440;2023-06-14T05:39:40;13.60;99.90
41592;DHT22;28026;48.562;14.440;2023-06-14T05:42:11;13.60;99.90
41592;DHT22;28026;48.562;14.440;2023-06-14T05:44:42;13.80;99.90
41592;DHT22;28026;48.562;14.440;2023-06-14T05:47:13;14.30;99.90
41592;DHT22;28026;48.562;14.440;2023-06-14T05:49:43;14.40;99.90
41592;DHT22;28026;48.562;14.440;2023-06-14T05:52:14;14.40;99.90
41592;DHT22;28026;48.562;14.440;2023-06-14T05:54:45;14.30;99.90
41592;DHT22;28026;48.562;14.440;2023-06-14T05:57:17;14.30;99.90
41592;DHT22;28026;48.562;14.440;2023-06-14T05:59:48;14.50;99.90
41592;DHT22;28026;48.562;14.440;2023-06-14T06:02:18;14.70;99.90
41592;DHT22;28026;48.562;14.440;2023-06-14T06:04:50;14.90;99.90
41592;DHT22;28026;48.562;14.440;2023-06-14T06:07:21;14.90;99.90
41592;DHT22;28026;48.562;14.440;2023-06-14T06:09:52;15.00;99.90
41592;DHT22;28026;48.562;14.440;2023-06-14T06:12:23;15.20;99.90
41592;DHT22;28026;48.562;14.440;2023-06-14T06:14:54;15.30;99.90
41592;DHT22;28026;48.562;14.440;2023-06-14T06:17:26;15.20;99.90
41592;DHT22;28026;48.562;14.440;2023-06-14T06:19:57;15.40;99.90
41592;DHT22;28026;48.562;14.440;2023-06-14T06:22:28;15.50;99.90
41592;DHT22;28026;48.562;14.440;2023-06-14T06:24:59;15.70;99.90
41592;DHT22;28026;48.562;14.440;2023-06-14T06:27:29;15.80;99.90
41592;DHT22;28026;48.562;14.440;2023-06-14T06:30:00;16.00;99.90
41592;DHT22;28026;48.562;14.440;2023-06-14T06:32:31;16.00;99.90
41592;DHT22;28026;48.562;14.440;2023-06-14T06:35:02;16.20;99.90
41592;DHT22;28026;48.562;14.440;2023-06-14T06:37:37;16.10;99.90
41592;DHT22;28026;48.562;14.440;2023-06-14T06:40:08;16.20;99.90
41592;DHT22;28026;48.562;14.440;2023-06-14T06:42:41;16.50;99.90
41592;DHT22;28026;48.562;14.440;2023-06-14T06:45:12;16.70;99.90
41592;DHT22;28026;48.562;14.440;2023-06-14T06:47:42;17.10;99.90
41592;DHT22;28026;48.562;14.440;2023-06-14T06:50:13;17.30;99.90
41592;DHT22;28026;48.562;14.440;2023-06-14T06:52:44;17.50;99.90
41592;DHT22;28026;48.562;14.440;2023-06-14T06:55:15;17.60;99.90
41592;DHT22;28026;48.562;14.440;2023-06-14T06:57:46;17.80;99.90
41592;DHT22;28026;48.562;14.440;2023-06-14T07:00:17;18.00;99.90
41592;DHT22;28026;48.562;14.440;2023-06-14T07:02:49;17.90;99.90
41592;DHT22;28026;48.562;14.440;2023-06-14T07:05:21;17.80;99.90
41592;DHT22;28026;48.562;14.440;2023-06-14T07:07:52;18.10;99.90
41592;DHT22;28026;48.562;14.440;2023-06-14T07:10:23;18.60;99.90
41592;DHT22;28026;48.562;14.440;2023-06-14T07:12:54;18.80;99.90
41592;DHT22;28026;48.562;14.440;2023-06-14T07:15:25;19.00;99.90
41592;DHT22;28026;48.562;14.440;2023-06-14T07:17:57;19.10;99.90
41592;DHT22;28026;48.562;14.440;2023-06-14T07:20:30;19.20;99.90
41592;DHT22;28026;48.562;14.440;2023-06-14T07:23:01;19.20;99.90
41592;DHT22;28026;48.562;14.440;2023-06-14T07:25:32;19.10;99.90
41592;DHT22;28026;48.562;14.440;2023-06-14T07:28:03;19.40;99.90
41592;DHT22;28026;48.562;14.440;2023-06-14T07:30:35;19.60;99.90
41592;DHT22;28026;48.562;14.440;2023-06-14T07:33:06;19.60;99.90
41592;DHT22;28026;48.562;14.440;2023-06-14T07:35:38;19.70;99.90
41592;DHT22;28026;48.562;14.440;2023-06-14T07:38:09;20.10;99.90
41592;DHT22;28026;48.562;14.440;2023-06-14T07:40:40;20.00;99.90
41592;DHT22;28026;48.562;14.440;2023-06-14T07:43:11;19.80;99.90
41592;DHT22;28026;48.562;14.440;2023-06-14T07:45:42;20.30;99.90
41592;DHT22;28026;48.562;14.440;2023-06-14T07:48:13;20.40;99.90
41592;DHT22;28026;48.562;14.440;2023-06-14T07:50:44;20.20;99.90
41592;DHT22;28026;48.562;14.440;2023-06-14T07:53:15;20.00;99.90
41592;DHT22;28026;48.562;14.440;2023-06-14T07:55:46;20.40;99.90
41592;DHT22;28026;48.562;14.440;2023-06-14T07:58:17;20.50;99.90
41592;DHT22;28026;48.562;14.440;2023-06-14T08:00:48;21.00;99.90
41592;DHT22;28026;48.562;14.440;2023-06-14T08:03:20;21.00;99.90
41592;DHT22;28026;48.562;14.440;2023-06-14T08:05:51;21.10;99.90
41592;DHT22;28026;48.562;14.440;2023-06-14T08:08:22;21.10;99.90
41592;DHT22;28026;48.562;14.440;2023-06-14T08:10:52;21.20;99.90
41592;DHT22;28026;48.562;14.440;2023-06-14T08:13:23;20.90;99.90
41592;DHT22;28026;48.562;14.440;2023-06-14T08:15:54;20.90;99.90
41592;DHT22;28026;48.562;14.440;2023-06-14T08:18:27;20.90;99.90
41592;DHT22;28026;48.562;14.440;2023-06-14T08:20:58;20.60;99.90
41592;DHT22;28026;48.562;14.440;2023-06-14T08:23:29;20.60;99.90
41592;DHT22;28026;48.562;14.440;2023-06-14T08:26:01;21.20;99.90
41592;DHT22;28026;48.562;14.440;2023-06-14T08:28:34;21.60;99.90
41592;DHT22;28026;48.562;14.440;2023-06-14T08:31:05;21.50;99.90
41592;DHT22;28026;48.562;14.440;2023-06-14T08:33:36;21.30;99.90
41592;DHT22;28026;48.562;14.440;2023-06-14T08:36:07;21.60;99.90
41592;DHT22;28026;48.562;14.440;2023-06-14T08:38:38;22.00;99.90
41592;DHT22;28026;48.562;14.440;2023-06-14T08:41:11;22.50;99.90
41592;DHT22;28026;48.562;14.440;2023-06-14T08:43:52;22.40;99.90
41592;DHT22;28026;48.562;14.440;2023-06-14T08:46:25;22.40;99.90
41592;DHT22;28026;48.562;14.440;2023-06-14T08:48:58;21.70;99.90
41592;DHT22;28026;48.562;14.440;2023-06-14T08:51:31;22.40;99.90
41592;DHT22;28026;48.562;14.440;2023-06-14T08:54:07;22.60;99.90
41592;DHT22;28026;48.562;14.440;2023-06-14T08:56:38;22.50;99.90
41592;DHT22;28026;48.562;14.440;2023-06-14T08:59:12;23.00;99.90
41592;DHT22;28026;48.562;14.440;2023-06-14T09:01:44;22.80;99.90
41592;DHT22;28026;48.562;14.440;2023-06-14T09:04:15;22.40;99.90
41592;DHT22;28026;48.562;14.440;2023-06-14T09:06:46;21.80;99.90
41592;DHT22;28026;48.562;14.440;2023-06-14T09:09:23;21.20;99.90
41592;DHT22;28026;48.562;14.440;2023-06-14T09:11:56;20.80;99.90
41592;DHT22;28026;48.562;14.440;2023-06-14T09:14:27;20.50;99.90
41592;DHT22;28026;48.562;14.440;2023-06-14T09:16:57;20.10;99.90
41592;DHT22;28026;48.562;14.440;2023-06-14T09:19:28;19.80;99.90
41592;DHT22;28026;48.562;14.440;2023-06-14T09:21:59;19.70;99.90
41592;DHT22;28026;48.562;14.440;2023-06-14T09:24:30;19.30;99.90
41592;DHT22;28026;48.562;14.440;2023-06-14T09:27:01;19.30;99.90
41592;DHT22;28026;48.562;14.440;2023-06-14T09:29:33;19.20;99.90
41592;DHT22;28026;48.562;14.440;2023-06-14T09:32:04;19.30;99.90
41592;DHT22;28026;48.562;14.440;2023-06-14T09:34:37;19.30;99.90
41592;DHT22;28026;48.562;14.440;2023-06-14T09:37:08;19.20;99.90
41592;DHT22;28026;48.562;14.440;2023-06-14T09:39:51;19.00;99.90
41592;DHT22;28026;48.562;14.440;2023-06-14T09:42:22;19.20;99.90
41592;DHT22;28026;48.562;14.440;2023-06-14T09:44:56;19.40;99.90
41592;DHT22;28026;48.562;14.440;2023-06-14T09:47:27;19.50;99.90
41592;DHT22;28026;48.562;14.440;2023-06-14T09:49:58;19.70;99.90
41592;DHT22;28026;48.562;14.440;2023-06-14T09:52:30;19.50;99.90
41592;DHT22;28026;48.562;14.440;2023-06-14T09:55:12;19.20;99.90
41592;DHT22;28026;48.562;14.440;2023-06-14T09:57:45;19.10;99.90
41592;DHT22;28026;48.562;14.440;2023-06-14T10:00:20;19.20;99.90
41592;DHT22;28026;48.562;14.440;2023-06-14T10:02:55;19.30;99.90
41592;DHT22;28026;48.562;14.440;2023-06-14T10:05:43;19.30;99.90
41592;DHT22;28026;48.562;14.440;2023-06-14T10:08:24;19.50;99.90
41592;DHT22;28026;48.562;14.440;2023-06-14T10:11:00;19.40;99.90
41592;DHT22;28026;48.562;14.440;2023-06-14T10:13:32;19.50;99.90
41592;DHT22;28026;48.562;14.440;2023-06-14T10:16:24;19.50;99.90
41592;DHT22;28026;48.562;14.440;2023-06-14T10:22:02;20.00;99.90
41592;DHT22;28026;48.562;14.440;2023-06-14T10:24:45;19.90;99.90
41592;DHT22;28026;48.562;14.440;2023-06-14T10:27:17;19.70;99.90
41592;DHT22;28026;48.562;14.440;2023-06-14T10:32:27;19.40;99.90
41592;DHT22;28026;48.562;14.440;2023-06-14T10:35:01;19.30;99.90
41592;DHT22;28026;48.562;14.440;2023-06-14T10:37:39;19.30;99.90
41592;DHT22;28026;48.562;14.440;2023-06-14T10:40:30;19.40;99.90
41592;DHT22;28026;48.562;14.440;2023-06-14T10:43:21;19.80;99.90
41592;DHT22;28026;48.562;14.440;2023-06-14T10:48:45;21.40;99.90
41592;DHT22;28026;48.562;14.440;2023-06-14T10:51:20;22.60;99.90
41592;DHT22;28026;48.562;14.440;2023-06-14T10:53:51;23.20;99.90
41592;DHT22;28026;48.562;14.440;2023-06-14T10:56:33;22.60;97.90
41592;DHT22;28026;48.562;14.440;2023-06-14T10:59:04;22.60;99.50
41592;DHT22;28026;48.562;14.440;2023-06-14T11:01:37;23.70;99.30
41592;DHT22;28026;48.562;14.440;2023-06-14T11:04:20;23.60;99.50
41592;DHT22;28026;48.562;14.440;2023-06-14T11:06:52;23.50;99.50
41592;DHT22;28026;48.562;14.440;2023-06-14T11:09:56;23.00;97.30
41592;DHT22;28026;48.562;14.440;2023-06-14T11:12:51;22.30;98.90
41592;DHT22;28026;48.562;14.440;2023-06-14T11:15:32;22.40;98.00
41592;DHT22;28026;48.562;14.440;2023-06-14T11:18:07;23.00;98.80
41592;DHT22;28026;48.562;14.440;2023-06-14T11:20:41;22.70;97.60
41592;DHT22;28026;48.562;14.440;2023-06-14T11:23:13;22.10;97.60
41592;DHT22;28026;48.562;14.440;2023-06-14T11:25:43;22.00;98.50
41592;DHT22;28026;48.562;14.440;2023-06-14T11:28:21;20.90;97.80
41592;DHT22;28026;48.562;14.440;2023-06-14T11:31:04;20.60;99.50
41592;DHT22;28026;48.562;14.440;2023-06-14T11:33:35;21.80;99.50
41592;DHT22;28026;48.562;14.440;2023-06-14T11:36:06;21.90;96.70
41592;DHT22;28026;48.562;14.440;2023-06-14T11:38:38;21.70;97.90
41592;DHT22;28026;48.562;14.440;2023-06-14T11:41:09;21.70;98.10
41592;DHT22;28026;48.562;14.440;2023-06-14T11:43:40;21.70;97.40
41592;DHT22;28026;48.562;14.440;2023-06-14T11:46:14;21.50;98.30
41592;DHT22;28026;48.562;14.440;2023-06-14T11:48:47;22.30;97.70
41592;DHT22;28026;48.562;14.440;2023-06-14T11:51:19;22.40;98.00
41592;DHT22;28026;48.562;14.440;2023-06-14T11:53:51;23.70;97.20
41592;DHT22;28026;48.562;14.440;2023-06-14T11:56:22;23.50;98.10
41592;DHT22;28026;48.562;14.440;2023-06-14T11:58:53;22.90;97.00
41592;DHT22;28026;48.562;14.440;2023-06-14T12:01:27;22.00;97.40
41592;DHT22;28026;48.562;14.440;2023-06-14T12:04:01;21.50;98.40
41592;DHT22;28026;48.562;14.440;2023-06-14T12:06:34;21.40;98.40
41592;DHT22;28026;48.562;14.440;2023-06-14T12:09:07;21.00;98.50
41592;DHT22;28026;48.562;14.440;2023-06-14T12:11:45;20.90;98.20
41592;DHT22;28026;48.562;14.440;2023-06-14T12:14:16;20.70;99.10
41592;DHT22;28026;48.562;14.440;2023-06-14T12:16:47;20.90;99.90
41592;DHT22;28026;48.562;14.440;2023-06-14T12:19:18;21.90;99.30
41592;DHT22;28026;48.562;14.440;2023-06-14T12:21:48;22.90;99.70
41592;DHT22;28026;48.562;14.440;2023-06-14T12:24:21;22.90;98.40
41592;DHT22;28026;48.562;14.440;2023-06-14T12:26:58;22.80;98.80
41592;DHT22;28026;48.562;14.440;2023-06-14T12:29:30;23.10;97.80
41592;DHT22;28026;48.562;14.440;2023-06-14T12:32:02;23.80;98.20
41592;DHT22;28026;48.562;14.440;2023-06-14T12:34:33;24.10;97.90
41592;DHT22;28026;48.562;14.440;2023-06-14T12:37:04;24.90;96.80
41592;DHT22;28026;48.562;14.440;2023-06-14T12:39:36;25.50;95.40
41592;DHT22;28026;48.562;14.440;2023-06-14T12:42:09;25.30;95.20
41592;DHT22;28026;48.562;14.440;2023-06-14T12:44:41;24.00;95.20
41592;DHT22;28026;48.562;14.440;2023-06-14T12:47:14;23.30;96.60
41592;DHT22;28026;48.562;14.440;2023-06-14T12:49:45;23.50;95.40
41592;DHT22;28026;48.562;14.440;2023-06-14T12:52:16;24.20;97.00
41592;DHT22;28026;48.562;14.440;2023-06-14T12:54:46;25.10;95.00
41592;DHT22;28026;48.562;14.440;2023-06-14T12:57:17;25.10;94.90
41592;DHT22;28026;48.562;14.440;2023-06-14T12:59:48;25.50;94.90
41592;DHT22;28026;48.562;14.440;2023-06-14T13:02:20;25.60;94.40
41592;DHT22;28026;48.562;14.440;2023-06-14T13:04:54;26.00;93.80
41592;DHT22;28026;48.562;14.440;2023-06-14T13:07:25;26.20;94.80
41592;DHT22;28026;48.562;14.440;2023-06-14T13:09:56;26.30;93.30
41592;DHT22;28026;48.562;14.440;2023-06-14T13:12:27;26.00;93.80
41592;DHT22;28026;48.562;14.440;2023-06-14T13:14:58;26.20;92.90
41592;DHT22;28026;48.562;14.440;2023-06-14T13:17:29;26.50;91.40
41592;DHT22;28026;48.562;14.440;2023-06-14T13:20:00;26.60;94.20
41592;DHT22;28026;48.562;14.440;2023-06-14T13:22:31;26.50;92.70
41592;DHT22;28026;48.562;14.440;2023-06-14T13:25:02;25.80;91.30
41592;DHT22;28026;48.562;14.440;2023-06-14T13:27:34;25.30;92.30
41592;DHT22;28026;48.562;14.440;2023-06-14T13:30:05;25.50;92.40
41592;DHT22;28026;48.562;14.440;2023-06-14T13:32:37;25.20;92.40
41592;DHT22;28026;48.562;14.440;2023-06-14T13:35:08;24.10;93.70
41592;DHT22;28026;48.562;14.440;2023-06-14T13:37:39;23.80;93.50
41592;DHT22;28026;48.562;14.440;2023-06-14T13:40:10;24.00;94.50
41592;DHT22;28026;48.562;14.440;2023-06-14T13:42:42;25.10;93.50
41592;DHT22;28026;48.562;14.440;2023-06-14T13:45:13;25.40;94.40
41592;DHT22;28026;48.562;14.440;2023-06-14T13:47:45;26.10;93.30
41592;DHT22;28026;48.562;14.440;2023-06-14T13:50:18;26.60;93.00
41592;DHT22;28026;48.562;14.440;2023-06-14T13:52:50;26.60;93.80
41592;DHT22;28026;48.562;14.440;2023-06-14T13:55:21;26.70;91.50
41592;DHT22;28026;48.562;14.440;2023-06-14T13:57:52;26.70;91.30
41592;DHT22;28026;48.562;14.440;2023-06-14T14:00:22;26.50;92.60
41592;DHT22;28026;48.562;14.440;2023-06-14T14:02:54;26.40;90.90
41592;DHT22;28026;48.562;14.440;2023-06-14T14:05:25;25.70;91.10
41592;DHT22;28026;48.562;14.440;2023-06-14T14:07:59;25.50;91.00
41592;DHT22;28026;48.562;14.440;2023-06-14T14:10:30;25.10;91.30
41592;DHT22;28026;48.562;14.440;2023-06-14T14:13:01;24.60;92.10
41592;DHT22;28026;48.562;14.440;2023-06-14T14:15:32;24.10;92.40
41592;DHT22;28026;48.562;14.440;2023-06-14T14:18:05;23.20;93.40
41592;DHT22;28026;48.562;14.440;2023-06-14T14:20:36;23.30;93.60
41592;DHT22;28026;48.562;14.440;2023-06-14T14:23:07;23.30;93.10
41592;DHT22;28026;48.562;14.440;2023-06-14T14:25:37;23.30;94.20
41592;DHT22;28026;48.562;14.440;2023-06-14T14:28:08;23.30;92.50
41592;DHT22;28026;48.562;14.440;2023-06-14T14:30:39;23.00;92.80
41592;DHT22;28026;48.562;14.440;2023-06-14T14:33:10;22.60;92.50
41592;DHT22;28026;48.562;14.440;2023-06-14T14:35:46;22.30;93.60
41592;DHT22;28026;48.562;14.440;2023-06-14T14:38:17;22.20;94.70
41592;DHT22;28026;48.562;14.440;2023-06-14T14:40:48;21.90;94.30
41592;DHT22;28026;48.562;14.440;2023-06-14T14:43:19;21.80;94.90
41592;DHT22;28026;48.562;14.440;2023-06-14T14:45:50;21.90;95.50
41592;DHT22;28026;48.562;14.440;2023-06-14T14:48:21;22.30;95.00
41592;DHT22;28026;48.562;14.440;2023-06-14T14:50:52;22.40;95.80
41592;DHT22;28026;48.562;14.440;2023-06-14T14:53:23;23.10;95.40
41592;DHT22;28026;48.562;14.440;2023-06-14T14:55:54;23.90;95.30
41592;DHT22;28026;48.562;14.440;2023-06-14T14:58:25;23.60;94.30
41592;DHT22;28026;48.562;14.440;2023-06-14T15:00:56;24.00;93.90
41592;DHT22;28026;48.562;14.440;2023-06-14T15:03:27;23.50;93.70
41592;DHT22;28026;48.562;14.440;2023-06-14T15:05:58;22.70;94.10
41592;DHT22;28026;48.562;14.440;2023-06-14T15:08:29;22.10;94.90
41592;DHT22;28026;48.562;14.440;2023-06-14T15:11:00;21.80;95.50
41592;DHT22;28026;48.562;14.440;2023-06-14T15:13:32;21.60;95.80
41592;DHT22;28026;48.562;14.440;2023-06-14T15:16:03;21.60;96.30
41592;DHT22;28026;48.562;14.440;2023-06-14T15:18:34;21.50;95.90
41592;DHT22;28026;48.562;14.440;2023-06-14T15:21:05;21.60;96.50
41592;DHT22;28026;48.562;14.440;2023-06-14T15:23:36;21.90;96.90
41592;DHT22;28026;48.562;14.440;2023-06-14T15:26:07;22.10;96.40
41592;DHT22;28026;48.562;14.440;2023-06-14T15:28:38;22.40;96.60
41592;DHT22;28026;48.562;14.440;2023-06-14T15:31:08;22.30;96.00
41592;DHT22;28026;48.562;14.440;2023-06-14T15:33:39;21.80;96.80
41592;DHT22;28026;48.562;14.440;2023-06-14T15:36:10;21.70;96.40
41592;DHT22;28026;48.562;14.440;2023-06-14T15:38:41;21.40;97.00
41592;DHT22;28026;48.562;14.440;2023-06-14T15:41:12;21.10;97.10
41592;DHT22;28026;48.562;14.440;2023-06-14T15:43:43;20.90;97.50
41592;DHT22;28026;48.562;14.440;2023-06-14T15:46:14;21.00;97.60
41592;DHT22;28026;48.562;14.440;2023-06-14T15:48:45;21.10;97.10
41592;DHT22;28026;48.562;14.440;2023-06-14T15:51:16;21.00;97.70
41592;DHT22;28026;48.562;14.440;2023-06-14T15:53:47;21.10;97.20
41592;DHT22;28026;48.562;14.440;2023-06-14T15:56:18;21.20;97.70
41592;DHT22;28026;48.562;14.440;2023-06-14T15:58:49;21.40;97.00
41592;DHT22;28026;48.562;14.440;2023-06-14T16:01:22;21.80;97.40
41592;DHT22;28026;48.562;14.440;2023-06-14T16:03:54;21.90;97.30